Time;durP1;ratioP1;P1;durP2;ratioP2;P2;SDS_P1;SDS_P2;PMS_P1;PMS_P2;Temp;Humidity;BMP_temperature;BMP_pressure;BME280_temperature;BME280_humidity;BME280_pressure;Samples;Min_cycle;Max_cycle;Signal;HPM_P1;HPM_P2
2022/07/03 00:01:42;;;;;;;0.77;0.70;;;21.00;53.00;;;;;;4911748;29;20048;-48
2022/07/03 00:04:11;;;;;;;2.05;1.60;;;20.90;52.30;;;;;;4902995;29;20048;-46
2022/07/03 00:06:39;;;;;;;1.23;0.80;;;20.90;52.30;;;;;;4914983;29;20634;-48
2022/07/03 00:09:10;;;;;;;1.20;0.85;;;20.90;52.50;;;;;;4915377;29;20036;-46
2022/07/03 00:11:39;;;;;;;1.33;0.93;;;20.90;53.10;;;;;;4914221;29;20056;-49
2022/07/03 00:14:06;;;;;;;1.73;0.75;;;20.90;53.00;;;;;;4912286;29;20127;-46
2022/07/03 00:16:33;;;;;;;2.40;1.00;;;20.90;53.30;;;;;;4914695;29;20700;-46
2022/07/03 00:19:02;;;;;;;2.03;0.82;;;20.80;53.30;;;;;;4910678;29;20488;-48
2022/07/03 00:21:43;;;;;;;1.10;0.98;;;20.80;53.60;;;;;;4915056;29;20036;-48
2022/07/03 00:24:26;;;;;;;1.33;0.88;;;20.80;54.20;;;;;;4913858;29;20119;-49
2022/07/03 00:26:54;;;;;;;1.17;0.82;;;20.80;54.30;;;;;;4895551;29;20760;-48
2022/07/03 00:29:22;;;;;;;0.70;0.70;;;20.90;53.40;;;;;;4894620;29;20044;-46
2022/07/03 00:31:52;;;;;;;0.65;0.60;;;20.80;53.30;;;;;;4914584;29;20488;-49
2022/07/03 00:34:20;;;;;;;2.78;0.90;;;20.70;53.30;;;;;;4915757;29;20050;-46
2022/07/03 00:36:48;;;;;;;1.77;0.60;;;20.70;53.20;;;;;;4913941;29;20055;-50
2022/07/03 00:39:15;;;;;;;2.33;0.80;;;20.70;53.10;;;;;;4909723;29;20504;-46
2022/07/03 00:41:45;;;;;;;1.58;0.80;;;20.60;53.00;;;;;;4912492;29;20520;-47
2022/07/03 00:44:12;;;;;;;0.93;0.70;;;20.50;53.00;;;;;;4914406;29;20071;-48
2022/07/03 00:46:41;;;;;;;2.60;0.68;;;20.50;52.80;;;;;;4914739;29;20056;-48
2022/07/03 00:49:10;;;;;;;0.90;0.90;;;20.50;53.00;;;;;;4914892;29;20068;-47
2022/07/03 00:51:40;;;;;;;1.40;0.85;;;20.40;53.10;;;;;;4913305;29;20104;-46
2022/07/03 00:54:09;;;;;;;2.00;0.80;;;20.30;52.90;;;;;;4913576;29;20040;-47
2022/07/03 00:56:40;;;;;;;0.68;0.68;;;20.30;53.10;;;;;;4912990;29;20099;-47
2022/07/03 00:59:14;;;;;;;0.70;0.70;;;20.30;53.30;;;;;;4914066;29;20051;-47
2022/07/03 01:01:41;;;;;;;1.50;0.88;;;20.20;53.30;;;;;;4914437;29;20044;-50
2022/07/03 01:04:13;;;;;;;3.30;0.75;;;20.20;53.10;;;;;;4915155;29;20036;-47
2022/07/03 01:06:52;;;;;;;1.88;0.70;;;20.10;53.20;;;;;;4909671;29;20040;-48
2022/07/03 01:09:58;;;;;;;2.38;0.70;;;20.10;53.80;;;;;;4912370;29;20056;-47
2022/07/03 01:12:55;;;;;;;0.73;0.60;;;20.00;53.90;;;;;;4895777;29;20060;-47
2022/07/03 01:15:56;;;;;;;0.65;0.65;;;20.00;54.00;;;;;;4901363;29;20044;-47
2022/07/03 01:18:47;;;;;;;0.75;0.75;;;19.90;54.10;;;;;;4913550;29;20103;-47
2022/07/03 01:21:46;;;;;;;1.02;0.93;;;19.90;54.20;;;;;;4895312;29;20256;-48
2022/07/03 01:24:19;;;;;;;0.90;0.80;;;19.80;53.90;;;;;;4908013;29;20048;-50
2022/07/03 01:26:54;;;;;;;3.05;1.02;;;19.80;54.20;;;;;;4909629;29;20044;-47
2022/07/03 01:29:38;;;;;;;0.80;0.77;;;19.70;54.30;;;;;;4895638;29;20666;-47
2022/07/03 01:32:07;;;;;;;3.58;1.20;;;19.70;54.60;;;;;;4903129;29;20044;-47
2022/07/03 01:34:38;;;;;;;1.15;0.70;;;19.60;54.20;;;;;;4911085;29;20088;-48
2022/07/03 01:37:15;;;;;;;1.08;0.98;;;19.60;54.40;;;;;;4913457;29;20052;-48
2022/07/03 01:39:48;;;;;;;0.83;0.80;;;19.60;54.70;;;;;;4913883;29;20056;-49
2022/07/03 01:42:24;;;;;;;1.60;0.60;;;19.60;54.80;;;;;;4909148;29;20052;-51
2022/07/03 01:44:55;;;;;;;1.27;0.80;;;19.50;54.80;;;;;;4914380;29;20520;-47
2022/07/03 01:47:24;;;;;;;1.15;1.00;;;19.50;54.60;;;;;;4894689;29;20049;-52
2022/07/03 01:49:57;;;;;;;8.65;1.45;;;19.50;54.80;;;;;;4896100;29;20048;-48
2022/07/03 01:52:31;;;;;;;1.10;0.90;;;19.50;54.70;;;;;;4908106;29;20111;-47
2022/07/03 01:55:16;;;;;;;1.00;0.90;;;19.50;55.20;;;;;;4914050;29;20052;-48
2022/07/03 01:57:45;;;;;;;0.73;0.73;;;19.50;55.00;;;;;;4913391;29;20469;-48
2022/07/03 02:00:19;;;;;;;1.55;0.95;;;19.40;55.00;;;;;;4912462;29;20044;-48
2022/07/03 02:02:52;;;;;;;2.20;0.95;;;19.40;54.90;;;;;;4910055;29;20044;-48
2022/07/03 02:05:28;;;;;;;1.17;0.90;;;19.40;55.60;;;;;;4906209;29;20110;-47
2022/07/03 02:08:21;;;;;;;1.40;0.98;;;19.40;55.60;;;;;;4912664;29;20535;-47
2022/07/03 02:11:03;;;;;;;1.58;1.13;;;19.40;55.50;;;;;;4908968;29;20041;-48
2022/07/03 02:13:44;;;;;;;1.05;1.02;;;19.40;55.90;;;;;;4909877;29;20464;-47
2022/07/03 02:16:29;;;;;;;1.95;0.90;;;19.40;55.70;;;;;;4913381;29;20052;-48
2022/07/03 02:19:08;;;;;;;0.95;0.75;;;19.40;56.40;;;;;;4912050;29;20064;-48
2022/07/03 02:21:38;;;;;;;1.80;1.05;;;19.40;55.90;;;;;;4908497;29;20051;-49
2022/07/03 02:24:17;;;;;;;1.02;1.00;;;19.30;56.10;;;;;;4913884;29;20048;-48
2022/07/03 02:27:02;;;;;;;1.92;0.93;;;19.30;55.50;;;;;;4914790;29;20047;-47
2022/07/03 02:29:33;;;;;;;1.17;1.08;;;19.30;56.00;;;;;;4909901;29;20116;-47
2022/07/03 02:32:12;;;;;;;2.45;1.13;;;19.30;55.50;;;;;;4915362;29;20052;-47
2022/07/03 02:34:47;;;;;;;0.93;0.93;;;19.30;55.90;;;;;;4917849;29;20037;-49
2022/07/03 02:37:19;;;;;;;1.90;1.00;;;19.30;55.60;;;;;;4916632;29;20052;-51
2022/07/03 02:39:59;;;;;;;2.13;1.02;;;19.30;55.50;;;;;;4928914;23;20464;-48
2022/07/03 02:42:45;;;;;;;0.80;0.80;;;19.20;55.10;;;;;;4902018;29;20186;-49
2022/07/03 02:45:12;;;;;;;1.02;0.90;;;19.20;55.80;;;;;;4897574;29;20048;-46
2022/07/03 02:47:51;;;;;;;0.68;0.68;;;19.30;55.10;;;;;;4897192;29;20120;-47
2022/07/03 02:50:24;;;;;;;0.80;0.80;;;19.10;55.70;;;;;;4882925;29;20039;-49
2022/07/03 02:53:28;;;;;;;2.95;0.85;;;19.10;55.40;;;;;;4878696;29;20037;-46
2022/07/03 02:56:14;;;;;;;2.60;0.80;;;19.00;55.80;;;;;;4879202;29;20052;-47
2022/07/03 02:58:57;;;;;;;0.95;0.85;;;19.00;55.70;;;;;;4880408;29;20099;-50
2022/07/03 03:01:38;;;;;;;2.20;0.80;;;18.90;55.70;;;;;;4879843;29;20052;-46
2022/07/03 03:04:20;;;;;;;3.45;1.10;;;18.90;55.80;;;;;;4878493;29;20068;-50
2022/07/03 03:07:11;;;;;;;2.13;1.05;;;18.90;56.10;;;;;;4884646;29;20121;-50
2022/07/03 03:09:43;;;;;;;2.15;1.35;;;18.80;56.70;;;;;;4883614;29;20105;-50
2022/07/03 03:12:13;;;;;;;1.95;1.52;;;18.80;56.70;;;;;;4886242;29;20387;-50
2022/07/03 03:14:42;;;;;;;1.67;1.15;;;18.80;56.40;;;;;;4880354;29;20081;-50
2022/07/03 03:17:15;;;;;;;2.17;1.45;;;18.80;56.60;;;;;;4883506;29;20052;-50
2022/07/03 03:19:48;;;;;;;3.22;1.60;;;18.80;56.70;;;;;;4879390;29;20048;-45
2022/07/03 03:22:56;;;;;;;1.65;1.55;;;18.80;57.00;;;;;;4879033;29;20498;-46
2022/07/03 03:25:24;;;;;;;3.63;1.77;;;18.80;57.10;;;;;;4844929;29;20046;-46
2022/07/03 03:27:52;;;;;;;2.88;1.70;;;18.80;56.70;;;;;;4843446;29;20110;-46
2022/07/03 03:30:19;;;;;;;2.85;1.70;;;18.80;57.00;;;;;;4852159;29;20529;-46
2022/07/03 03:32:49;;;;;;;1.77;1.67;;;18.80;57.00;;;;;;4873695;29;20076;-46
2022/07/03 03:35:16;;;;;;;2.92;2.00;;;18.80;57.30;;;;;;4870527;29;20525;-46
2022/07/03 03:37:45;;;;;;;2.28;2.08;;;18.80;57.10;;;;;;4879848;29;20084;-46
2022/07/03 03:40:12;;;;;;;2.92;2.35;;;18.90;57.40;;;;;;4878245;29;20584;-46
2022/07/03 03:42:41;;;;;;;3.03;2.20;;;18.90;57.40;;;;;;4881880;29;20052;-46
2022/07/03 03:45:10;;;;;;;2.50;2.25;;;18.90;57.30;;;;;;4881226;29;20128;-48
2022/07/03 03:47:37;;;;;;;2.63;2.25;;;18.90;57.20;;;;;;4877803;29;20794;-47
2022/07/03 03:50:05;;;;;;;2.30;2.10;;;18.80;57.10;;;;;;4879648;29;20528;-46
2022/07/03 03:52:32;;;;;;;2.88;2.20;;;18.90;57.40;;;;;;4877403;29;20045;-51
2022/07/03 03:55:00;;;;;;;2.00;1.90;;;18.90;57.50;;;;;;4881682;29;20093;-46
2022/07/03 03:57:29;;;;;;;3.85;2.20;;;18.80;57.50;;;;;;4876523;29;20048;-46
2022/07/03 03:59:56;;;;;;;2.85;2.60;;;18.80;57.40;;;;;;4879140;29;20045;-48
2022/07/03 04:02:38;;;;;;;2.33;1.95;;;18.90;57.60;;;;;;4881803;29;20052;-50
2022/07/03 04:05:08;;;;;;;3.72;2.13;;;18.80;57.40;;;;;;4881855;29;20045;-48
2022/07/03 04:07:37;;;;;;;3.33;2.10;;;18.80;58.00;;;;;;4871267;29;20040;-46
2022/07/03 04:10:07;;;;;;;3.05;2.85;;;18.80;57.80;;;;;;4879508;29;20068;-48
2022/07/03 04:12:37;;;;;;;2.35;2.15;;;18.80;58.10;;;;;;4882944;29;20048;-46
2022/07/03 04:15:07;;;;;;;2.67;2.42;;;18.80;58.30;;;;;;4879006;29;20493;-46
2022/07/03 04:17:33;;;;;;;3.15;2.80;;;18.80;58.40;;;;;;4877095;29;20051;-47
2022/07/03 04:20:00;;;;;;;2.80;2.55;;;18.80;58.50;;;;;;4881289;29;20092;-47
2022/07/03 04:22:29;;;;;;;3.33;2.47;;;18.80;58.70;;;;;;4879464;29;20112;-47
2022/07/03 04:24:58;;;;;;;3.10;2.50;;;18.80;58.80;;;;;;4878671;29;20120;-48
2022/07/03 04:27:25;;;;;;;3.40;3.10;;;18.90;58.90;;;;;;4876051;29;20647;-48
2022/07/03 04:30:21;;;;;;;2.47;2.28;;;18.90;58.90;;;;;;4878909;29;20112;-46
2022/07/03 04:32:50;;;;;;;3.67;2.95;;;19.00;58.90;;;;;;4877336;29;20057;-48
2022/07/03 04:35:22;;;;;;;4.07;2.80;;;19.00;58.90;;;;;;4870627;29;20505;-47
2022/07/03 04:37:51;;;;;;;4.10;2.83;;;19.00;58.90;;;;;;4877416;29;20045;-46
2022/07/03 04:40:18;;;;;;;3.30;2.75;;;19.00;59.00;;;;;;4879300;29;20069;-46
2022/07/03 04:42:44;;;;;;;3.45;3.15;;;19.00;59.00;;;;;;4880417;29;20053;-46
2022/07/03 04:45:11;;;;;;;2.90;2.70;;;19.00;59.10;;;;;;4878145;29;20066;-48
2022/07/03 04:47:40;;;;;;;4.78;3.35;;;19.00;59.20;;;;;;4876190;29;20561;-46
2022/07/03 04:50:09;;;;;;;3.40;3.10;;;19.10;59.60;;;;;;4878348;29;20036;-46
2022/07/03 04:52:38;;;;;;;3.80;3.50;;;19.10;59.40;;;;;;4881005;29;20034;-47
2022/07/03 04:55:09;;;;;;;5.78;3.60;;;19.10;59.60;;;;;;4878971;29;20168;-50
2022/07/03 04:57:42;;;;;;;5.28;3.60;;;19.10;59.50;;;;;;4876980;29;20052;-50
2022/07/03 05:00:13;;;;;;;3.78;3.42;;;19.20;59.40;;;;;;4882749;29;20052;-49
2022/07/03 05:02:42;;;;;;;7.75;4.40;;;19.20;59.70;;;;;;4875562;29;20109;-50
2022/07/03 05:05:15;;;;;;;6.72;3.90;;;19.20;59.30;;;;;;4878280;29;20093;-50
2022/07/03 05:07:46;;;;;;;4.95;3.80;;;19.30;60.20;;;;;;4876775;29;20045;-49
2022/07/03 05:10:22;;;;;;;6.85;3.60;;;19.30;59.30;;;;;;4882251;29;20747;-50
2022/07/03 05:12:51;;;;;;;5.20;4.60;;;19.40;59.30;;;;;;4877160;29;20049;-46
2022/07/03 05:15:20;;;;;;;3.80;3.50;;;19.40;59.30;;;;;;4877639;29;20073;-50
2022/07/03 05:17:47;;;;;;;4.38;3.90;;;19.50;59.40;;;;;;4878556;29;20513;-48
2022/07/03 05:20:30;;;;;;;4.22;3.90;;;19.50;59.10;;;;;;4882693;29;20056;-50
2022/07/03 05:23:01;;;;;;;3.97;3.28;;;19.60;59.10;;;;;;4877112;29;20049;-46
2022/07/03 05:25:37;;;;;;;5.38;4.00;;;19.60;59.40;;;;;;4875909;29;20037;-51
2022/07/03 05:28:05;;;;;;;4.40;3.78;;;19.70;59.00;;;;;;4878002;29;20036;-50
2022/07/03 05:30:34;;;;;;;5.13;3.95;;;19.70;59.10;;;;;;4880470;29;20041;-49
2022/07/03 05:33:01;;;;;;;4.95;4.57;;;19.80;59.30;;;;;;4876276;29;20458;-50
2022/07/03 05:35:28;;;;;;;4.32;4.03;;;19.80;59.10;;;;;;4878346;29;20041;-50
2022/07/03 05:37:58;;;;;;;4.90;4.07;;;19.90;59.20;;;;;;4877742;29;20148;-47
2022/07/03 05:40:27;;;;;;;4.60;3.55;;;20.00;58.90;;;;;;4876031;29;20037;-50
2022/07/03 05:42:54;;;;;;;4.72;4.05;;;20.00;58.70;;;;;;4876375;29;20048;-47
2022/07/03 05:45:23;;;;;;;4.13;3.50;;;20.10;58.60;;;;;;4877852;29;20056;-50
2022/07/03 05:47:49;;;;;;;4.05;3.35;;;20.10;58.50;;;;;;4875828;29;20549;-47
2022/07/03 05:50:16;;;;;;;4.63;3.50;;;20.20;58.10;;;;;;4877486;29;20070;-49
2022/07/03 05:52:45;;;;;;;4.93;3.35;;;20.20;57.80;;;;;;4876027;29;20065;-50
2022/07/03 05:55:17;;;;;;;2.72;2.53;;;20.30;57.80;;;;;;4878812;29;20101;-50
2022/07/03 05:57:46;;;;;;;3.25;2.70;;;20.30;57.70;;;;;;4879735;29;20081;-49
2022/07/03 06:00:13;;;;;;;3.42;2.78;;;20.40;57.60;;;;;;4877367;29;20049;-49
2022/07/03 06:02:40;;;;;;;2.35;2.15;;;20.40;57.60;;;;;;4876000;29;20714;-48
2022/07/03 06:05:10;;;;;;;3.97;1.90;;;20.50;56.80;;;;;;4880634;29;20055;-50
2022/07/03 06:07:37;;;;;;;5.22;2.13;;;20.50;57.50;;;;;;4876725;29;20093;-50
2022/07/03 06:10:05;;;;;;;3.33;2.22;;;20.60;57.00;;;;;;4876651;29;20102;-46
2022/07/03 06:12:32;;;;;;;3.47;2.33;;;20.70;57.20;;;;;;4861530;29;20045;-48
2022/07/03 06:14:58;;;;;;;3.58;2.65;;;20.80;56.70;;;;;;4881234;29;20860;-46
2022/07/03 06:17:28;;;;;;;4.13;3.30;;;20.80;56.70;;;;;;4871669;29;20122;-47
2022/07/03 06:19:55;;;;;;;2.67;2.25;;;20.90;56.70;;;;;;4868664;29;20053;-47
2022/07/03 06:22:22;;;;;;;5.88;3.10;;;21.00;56.70;;;;;;4865343;29;20045;-47
2022/07/03 06:24:48;;;;;;;2.85;2.65;;;21.10;56.70;;;;;;4869338;29;20458;-48
2022/07/03 06:27:15;;;;;;;4.68;2.45;;;21.20;56.40;;;;;;4878784;29;20044;-46
2022/07/03 06:29:42;;;;;;;3.30;2.13;;;21.20;56.20;;;;;;4874890;29;20045;-49
2022/07/03 06:32:09;;;;;;;3.33;3.03;;;21.30;56.00;;;;;;4880302;29;20432;-47
2022/07/03 06:34:36;;;;;;;2.45;2.03;;;21.40;55.50;;;;;;4880119;29;20104;-46
2022/07/03 06:37:03;;;;;;;5.10;2.08;;;21.50;55.20;;;;;;4871219;29;20049;-47
2022/07/03 06:39:30;;;;;;;2.10;1.80;;;21.50;54.90;;;;;;4868072;29;20045;-46
2022/07/03 06:41:57;;;;;;;2.40;2.20;;;21.50;54.70;;;;;;4871083;29;20110;-47
2022/07/03 06:44:24;;;;;;;2.45;1.75;;;21.60;54.80;;;;;;4869879;29;20493;-50
2022/07/03 06:46:51;;;;;;;3.20;2.28;;;21.60;54.80;;;;;;4870643;29;20045;-51
2022/07/03 06:49:17;;;;;;;4.85;2.67;;;21.60;55.10;;;;;;4887401;29;20036;-51
2022/07/03 06:51:44;;;;;;;3.47;3.17;;;21.60;55.50;;;;;;4877102;29;20041;-51
2022/07/03 06:54:11;;;;;;;3.58;2.78;;;21.60;55.50;;;;;;4885872;29;20072;-51
2022/07/03 06:56:38;;;;;;;3.22;2.67;;;21.60;54.60;;;;;;4871375;29;20045;-51
2022/07/03 06:59:05;;;;;;;3.30;2.55;;;21.60;54.50;;;;;;4875658;29;20402;-51
2022/07/03 07:01:31;;;;;;;4.38;2.58;;;21.60;54.10;;;;;;4874867;29;20053;-51
2022/07/03 07:03:58;;;;;;;5.50;2.42;;;21.60;54.10;;;;;;4870546;29;20068;-51
2022/07/03 07:06:30;;;;;;;4.97;2.63;;;21.60;54.80;;;;;;4868235;29;20037;-51
2022/07/03 07:08:57;;;;;;;3.85;2.83;;;21.60;54.90;;;;;;4870792;29;20493;-51
2022/07/03 07:11:24;;;;;;;4.45;3.45;;;21.60;55.00;;;;;;4878530;29;20052;-50
2022/07/03 07:13:56;;;;;;;4.78;3.35;;;21.70;54.70;;;;;;4875723;29;20053;-50
2022/07/03 07:16:23;;;;;;;3.83;3.00;;;21.70;54.80;;;;;;4879472;29;20790;-51
2022/07/03 07:18:50;;;;;;;4.05;2.78;;;21.70;54.40;;;;;;4878839;29;20234;-50
2022/07/03 07:21:20;;;;;;;4.35;2.53;;;21.70;53.80;;;;;;4878850;29;20045;-52
2022/07/03 07:23:47;;;;;;;3.90;2.45;;;21.80;53.90;;;;;;4880821;29;20448;-47
2022/07/03 07:26:18;;;;;;;4.88;2.70;;;21.80;53.70;;;;;;4879252;29;20040;-51
2022/07/03 07:28:47;;;;;;;5.22;2.53;;;21.80;53.30;;;;;;4879390;29;20128;-51
2022/07/03 07:31:33;;;;;;;4.03;2.78;;;21.80;53.70;;;;;;4884317;29;20042;-47
2022/07/03 07:34:04;;;;;;;3.55;2.20;;;21.90;53.30;;;;;;4879677;29;20041;-51
2022/07/03 07:36:32;;;;;;;4.93;3.13;;;21.90;53.60;;;;;;4879389;29;20049;-47
2022/07/03 07:39:01;;;;;;;3.17;2.38;;;21.90;53.90;;;;;;4881249;29;20045;-49
2022/07/03 07:41:30;;;;;;;3.10;2.35;;;22.00;54.20;;;;;;4878954;29;20037;-47
2022/07/03 07:44:04;;;;;;;4.60;2.53;;;22.00;53.70;;;;;;4879291;29;20071;-47
2022/07/03 07:46:31;;;;;;;5.38;2.22;;;22.00;53.80;;;;;;4884654;29;20454;-51
2022/07/03 07:48:58;;;;;;;5.85;2.50;;;22.10;53.30;;;;;;4876019;29;20417;-48
2022/07/03 07:51:27;;;;;;;2.92;1.60;;;22.10;52.90;;;;;;4878549;29;20076;-50
2022/07/03 07:53:57;;;;;;;3.33;2.22;;;22.10;53.10;;;;;;4879073;29;20041;-50
2022/07/03 07:56:26;;;;;;;2.20;2.08;;;22.20;52.40;;;;;;4880967;29;20060;-48
2022/07/03 07:58:53;;;;;;;3.97;1.98;;;22.20;52.20;;;;;;4878533;29;20196;-50
2022/07/03 08:06:55;;;;;;;2.70;1.80;;;22.30;52.60;;;;;;4863173;29;20462;-48
2022/07/03 08:09:22;;;;;;;2.55;2.35;;;22.30;51.80;;;;;;4886618;29;20652;-46
2022/07/03 08:11:49;;;;;;;1.70;1.60;;;22.30;51.80;;;;;;4886268;29;20049;-50
2022/07/03 08:14:15;;;;;;;1.83;1.35;;;22.40;51.40;;;;;;4885501;29;20085;-47
2022/07/03 08:16:44;;;;;;;4.63;1.15;;;22.40;52.10;;;;;;4878042;29;20441;-48
2022/07/03 08:19:11;;;;;;;3.30;1.10;;;22.40;51.50;;;;;;4874585;29;20057;-50
2022/07/03 08:21:38;;;;;;;2.53;1.42;;;22.40;50.70;;;;;;4870333;29;20044;-47
2022/07/03 08:24:05;;;;;;;2.40;1.33;;;22.50;50.10;;;;;;4867782;29;20053;-48
2022/07/03 08:26:32;;;;;;;2.95;1.10;;;22.50;50.30;;;;;;4878874;29;20036;-50
2022/07/03 08:28:59;;;;;;;2.20;1.05;;;22.60;50.30;;;;;;4877954;29;20045;-47
2022/07/03 08:31:25;;;;;;;1.63;1.27;;;22.60;50.20;;;;;;4872619;29;20046;-47
2022/07/03 08:33:52;;;;;;;1.52;1.20;;;22.60;50.40;;;;;;4868163;29;20041;-51
2022/07/03 08:36:19;;;;;;;2.00;1.60;;;22.60;50.80;;;;;;4880008;29;20426;-51
2022/07/03 08:38:46;;;;;;;2.95;1.23;;;22.70;50.60;;;;;;4877706;29;20063;-51
2022/07/03 08:41:15;;;;;;;1.25;0.90;;;22.70;50.30;;;;;;4878147;29;20041;-50
2022/07/03 08:43:43;;;;;;;5.45;2.00;;;22.80;50.30;;;;;;4879886;29;20048;-49
2022/07/03 08:46:11;;;;;;;2.38;2.17;;;22.80;50.00;;;;;;4878001;29;20613;-49
2022/07/03 08:48:40;;;;;;;2.17;1.60;;;22.90;49.90;;;;;;4877285;29;20041;-50
2022/07/03 08:51:08;;;;;;;2.75;1.70;;;22.90;49.70;;;;;;5074891;23;20072;-47
2022/07/03 08:53:35;;;;;;;1.27;1.15;;;23.00;49.70;;;;;;4898523;29;20496;-46
2022/07/03 08:56:04;;;;;;;4.78;1.77;;;23.00;49.20;;;;;;4907302;29;20132;-46
2022/07/03 08:58:32;;;;;;;3.13;1.40;;;23.00;49.30;;;;;;4898393;29;20041;-47
2022/07/03 09:00:59;;;;;;;1.63;1.48;;;23.10;49.10;;;;;;4899230;29;20044;-46
2022/07/03 09:03:26;;;;;;;2.10;1.65;;;23.10;49.90;;;;;;4903408;29;20063;-46
2022/07/03 09:05:57;;;;;;;2.70;1.35;;;23.20;49.20;;;;;;4899127;29;20072;-46
2022/07/03 09:08:26;;;;;;;1.77;1.30;;;23.20;48.90;;;;;;4895454;29;20049;-47
2022/07/03 09:10:53;;;;;;;2.40;1.30;;;23.30;49.40;;;;;;4896900;29;20097;-47
2022/07/03 09:13:20;;;;;;;1.42;1.00;;;23.30;49.30;;;;;;4898013;29;20497;-48
2022/07/03 09:15:46;;;;;;;1.80;1.48;;;23.40;49.30;;;;;;4889457;29;20081;-46
2022/07/03 09:18:13;;;;;;;3.63;1.10;;;23.40;49.00;;;;;;4889497;29;20056;-48
2022/07/03 09:20:41;;;;;;;4.43;1.40;;;23.50;48.90;;;;;;4893439;29;20552;-47
2022/07/03 09:23:15;;;;;;;3.95;1.42;;;23.50;48.50;;;;;;4896446;29;20044;-47
2022/07/03 09:25:57;;;;;;;2.65;1.42;;;23.60;48.20;;;;;;4892691;29;20049;-46
2022/07/03 09:28:42;;;;;;;1.60;1.13;;;23.60;47.90;;;;;;4887974;29;20044;-47
2022/07/03 09:31:13;;;;;;;2.00;1.20;;;23.70;47.50;;;;;;4894909;29;20512;-48
2022/07/03 09:33:56;;;;;;;1.60;1.50;;;23.70;48.10;;;;;;4890572;29;20049;-48
2022/07/03 09:36:50;;;;;;;1.25;1.13;;;23.70;47.50;;;;;;4883533;29;20036;-46
2022/07/03 09:39:30;;;;;;;1.73;1.40;;;23.70;47.50;;;;;;4897457;29;20040;-48
2022/07/03 09:41:59;;;;;;;3.78;1.48;;;23.80;47.00;;;;;;4898024;29;20048;-46
2022/07/03 09:44:47;;;;;;;1.88;1.73;;;23.80;46.70;;;;;;4896069;29;20049;-47
2022/07/03 09:47:19;;;;;;;1.58;1.48;;;23.90;47.60;;;;;;4894190;29;20120;-47
2022/07/03 09:49:51;;;;;;;2.53;1.60;;;23.90;47.60;;;;;;4896008;29;20041;-47
2022/07/03 09:52:57;;;;;;;1.30;1.00;;;24.00;47.20;;;;;;4897459;29;20054;-48
2022/07/03 09:55:23;;;;;;;1.75;1.35;;;24.00;47.20;;;;;;4884519;29;20596;-49
2022/07/03 09:57:50;;;;;;;5.10;1.55;;;24.00;47.00;;;;;;4898557;29;20072;-48
2022/07/03 10:00:22;;;;;;;1.65;1.30;;;24.10;46.80;;;;;;4897227;29;20101;-47
2022/07/03 10:03:02;;;;;;;2.15;1.95;;;24.20;46.80;;;;;;4889889;29;20044;-47
2022/07/03 10:05:32;;;;;;;1.20;1.10;;;24.20;46.20;;;;;;4887313;29;20106;-46
2022/07/03 10:08:03;;;;;;;1.45;1.08;;;24.30;46.50;;;;;;4885949;29;20496;-46
2022/07/03 10:10:35;;;;;;;1.95;1.60;;;24.30;46.90;;;;;;4894802;29;20037;-47
2022/07/03 10:13:03;;;;;;;1.65;1.55;;;24.30;46.10;;;;;;4889715;29;20045;-46
2022/07/03 10:15:31;;;;;;;2.05;1.20;;;24.40;46.20;;;;;;4895588;29;20048;-46
2022/07/03 10:17:59;;;;;;;1.42;1.13;;;24.40;46.10;;;;;;4896368;29;20116;-46
2022/07/03 10:20:40;;;;;;;2.13;1.17;;;24.50;46.40;;;;;;4899035;29;20040;-47
2022/07/03 10:23:08;;;;;;;2.08;1.02;;;24.50;45.70;;;;;;4894566;29;20052;-46
2022/07/03 10:25:35;;;;;;;1.88;0.93;;;24.50;45.50;;;;;;4895328;29;20096;-47
2022/07/03 10:28:02;;;;;;;1.58;1.17;;;24.60;46.10;;;;;;4898468;29;20630;-47
2022/07/03 10:30:31;;;;;;;0.77;0.77;;;24.70;45.70;;;;;;4894060;29;20048;-48
2022/07/03 10:32:57;;;;;;;1.17;1.02;;;24.70;45.70;;;;;;4877296;29;20106;-46
2022/07/03 10:35:31;;;;;;;2.17;0.98;;;24.70;45.80;;;;;;4879713;29;20056;-46
2022/07/03 10:38:01;;;;;;;2.50;1.00;;;24.90;45.50;;;;;;4899153;29;20060;-47
2022/07/03 10:46:23;;;;;;;1.00;0.85;;;25.00;44.90;;;;;;4889651;29;20049;-48
2022/07/03 10:48:57;;;;;;;1.38;0.73;;;25.10;44.90;;;;;;4894234;29;20066;-47
2022/07/03 10:51:25;;;;;;;1.08;1.00;;;25.10;44.30;;;;;;4893487;29;20059;-48
2022/07/03 10:54:30;;;;;;;1.00;0.90;;;25.20;44.50;;;;;;4905625;29;20051;-47
2022/07/03 10:57:02;;;;;;;0.88;0.55;;;25.30;44.20;;;;;;4897670;29;20144;-49
2022/07/03 10:59:42;;;;;;;1.30;0.90;;;25.40;44.70;;;;;;4907818;29;20464;-46
2022/07/03 11:02:53;;;;;;;1.80;0.90;;;25.40;44.20;;;;;;4890321;29;20053;-47
2022/07/03 11:05:25;;;;;;;2.05;0.95;;;25.50;44.20;;;;;;4875904;29;20083;-46
2022/07/03 11:07:55;;;;;;;1.02;0.88;;;25.60;43.80;;;;;;4895183;29;20045;-46
2022/07/03 11:10:24;;;;;;;1.23;0.80;;;25.60;43.90;;;;;;4894286;29;20044;-48
2022/07/03 11:13:08;;;;;;;1.60;0.70;;;25.70;43.80;;;;;;4896386;29;20124;-47
2022/07/03 11:15:53;;;;;;;1.08;0.80;;;25.80;43.10;;;;;;4907013;29;20437;-47
2022/07/03 11:18:28;;;;;;;1.65;0.68;;;25.80;43.50;;;;;;4905678;29;20052;-47
2022/07/03 11:21:13;;;;;;;0.55;0.55;;;25.90;43.30;;;;;;4896978;29;20406;-47
2022/07/03 11:24:23;;;;;;;0.93;0.60;;;26.00;43.40;;;;;;4897163;29;20059;-48
2022/07/03 11:27:17;;;;;;;0.90;0.55;;;26.10;42.90;;;;;;4824458;29;20058;-46
2022/07/03 11:29:50;;;;;;;1.73;0.70;;;26.20;43.60;;;;;;4897757;29;20041;-47
2022/07/03 11:32:49;;;;;;;0.70;0.63;;;26.20;42.90;;;;;;4894938;29;20053;-47
2022/07/03 11:35:49;;;;;;;2.58;0.98;;;26.30;43.10;;;;;;4898123;29;20045;-46
2022/07/03 11:38:22;;;;;;;0.93;0.50;;;26.40;43.50;;;;;;4888534;29;20509;-47
2022/07/03 11:40:51;;;;;;;0.70;0.70;;;26.50;41.70;;;;;;4896273;29;20048;-48
2022/07/03 11:43:18;;;;;;;1.92;0.60;;;26.50;42.00;;;;;;4899341;29;20048;-47
2022/07/03 11:45:47;;;;;;;2.47;0.90;;;26.60;42.20;;;;;;4895883;29;20135;-49
2022/07/03 11:48:25;;;;;;;2.88;1.25;;;26.70;42.20;;;;;;4896930;29;20535;-46
2022/07/03 11:51:02;;;;;;;1.38;0.70;;;26.80;41.90;;;;;;4896884;29;20045;-47
2022/07/03 11:53:31;;;;;;;2.33;0.80;;;26.80;42.20;;;;;;4903313;29;20039;-48
2022/07/03 11:56:05;;;;;;;2.33;0.40;;;26.80;41.70;;;;;;4899033;29;20053;-49
2022/07/03 11:58:49;;;;;;;0.80;0.60;;;26.90;41.90;;;;;;4887953;29;20059;-48
2022/07/03 12:01:22;;;;;;;0.60;0.50;;;27.00;41.20;;;;;;4897299;29;20036;-48
2022/07/03 12:03:49;;;;;;;1.17;0.57;;;27.00;40.90;;;;;;4901172;29;20048;-48
2022/07/03 12:06:17;;;;;;;0.75;0.47;;;27.10;41.40;;;;;;4893738;29;20079;-47
2022/07/03 12:08:47;;;;;;;1.23;0.43;;;27.20;41.10;;;;;;4879866;29;20045;-47
2022/07/03 12:11:16;;;;;;;1.02;0.52;;;27.20;41.40;;;;;;4903483;29;20052;-50
2022/07/03 12:13:43;;;;;;;0.40;0.40;;;27.30;41.40;;;;;;4910423;29;20497;-48
2022/07/03 12:16:14;;;;;;;2.40;0.55;;;27.40;41.40;;;;;;4904239;29;20073;-48
2022/07/03 12:18:54;;;;;;;0.88;0.40;;;27.60;40.40;;;;;;4896307;29;20072;-47
2022/07/03 12:21:23;;;;;;;1.33;0.52;;;27.70;40.60;;;;;;4896254;29;20052;-49
2022/07/03 12:23:55;;;;;;;1.92;0.60;;;27.80;40.90;;;;;;4899771;29;20055;-52
2022/07/03 12:26:29;;;;;;;0.68;0.40;;;28.00;40.80;;;;;;4898109;29;20439;-50
2022/07/03 12:29:01;;;;;;;2.00;0.45;;;28.20;40.30;;;;;;4898645;29;20049;-46
2022/07/03 12:31:28;;;;;;;0.35;0.35;;;28.30;39.70;;;;;;4902541;29;20049;-49
2022/07/03 12:34:00;;;;;;;0.30;0.30;;;28.30;39.70;;;;;;4895742;29;20056;-47
2022/07/03 12:36:27;;;;;;;0.73;0.45;;;28.40;39.80;;;;;;4896493;29;20041;-47
2022/07/03 12:38:56;;;;;;;1.95;0.43;;;28.50;39.50;;;;;;4896442;29;20104;-47
2022/07/03 12:41:24;;;;;;;1.65;0.60;;;28.50;39.60;;;;;;4880256;29;20048;-49
2022/07/03 12:43:55;;;;;;;2.38;0.75;;;28.50;39.90;;;;;;4895572;29;20116;-49
2022/07/03 12:46:26;;;;;;;0.80;0.38;;;28.60;39.40;;;;;;4882453;29;20505;-47
2022/07/03 12:48:55;;;;;;;3.25;0.47;;;28.60;39.70;;;;;;4900670;29;20044;-46
2022/07/03 12:51:48;;;;;;;0.77;0.65;;;28.80;39.70;;;;;;4895543;29;20037;-47
2022/07/03 12:54:34;;;;;;;;;;;28.80;39.10;;;;;;4892550;29;20040;-51
2022/07/03 13:00:11;;;;;;;1.27;0.47;;;29.00;39.70;;;;;;4899317;29;20052;-51
2022/07/03 13:02:40;;;;;;;2.67;0.55;;;29.00;39.20;;;;;;4895951;29;20052;-49
2022/07/03 13:05:17;;;;;;;0.68;0.68;;;29.10;39.00;;;;;;4895391;29;20100;-51
2022/07/03 13:07:46;;;;;;;1.20;0.55;;;29.00;38.40;;;;;;4900106;29;20449;-48
2022/07/03 13:10:18;;;;;;;0.80;0.77;;;29.00;38.70;;;;;;4894928;29;20511;-50
2022/07/03 13:12:52;;;;;;;0.77;0.50;;;29.10;38.60;;;;;;4896702;29;20404;-50
2022/07/03 13:15:23;;;;;;;0.75;0.50;;;29.10;38.90;;;;;;4883999;29;20073;-51
2022/07/03 13:17:56;;;;;;;0.68;0.40;;;29.20;38.70;;;;;;4896341;29;20116;-51
2022/07/03 13:20:23;;;;;;;0.50;0.50;;;29.30;38.20;;;;;;4887898;29;20535;-47
2022/07/03 13:22:51;;;;;;;2.28;0.85;;;29.30;38.80;;;;;;4896210;29;20048;-53
2022/07/03 13:25:18;;;;;;;0.77;0.68;;;29.40;38.00;;;;;;4897303;29;20685;-47
2022/07/03 13:27:45;;;;;;;0.38;0.30;;;29.50;38.20;;;;;;4899571;29;20497;-47
2022/07/03 13:30:16;;;;;;;4.60;0.52;;;29.70;38.30;;;;;;4890556;29;20104;-50